sensor_id;sensor_type;location;lat;lon;timestamp;pressure;altitude;pressure_sealevel;temperature
50206;BMP280;36098;48.390;10.856;2022-10-28T00:01:23;96945.84;;;24.67
50206;BMP280;36098;48.390;10.856;2022-10-28T00:03:51;96940.53;;;24.62
50206;BMP280;36098;48.390;10.856;2022-10-28T00:06:22;96942.13;;;24.68
50206;BMP280;36098;48.390;10.856;2022-10-28T00:08:48;96944.53;;;24.65
50206;BMP280;36098;48.390;10.856;2022-10-28T00:11:18;96946.88;;;24.61
50206;BMP280;36098;48.390;10.856;2022-10-28T00:13:44;96947.41;;;24.63
50206;BMP280;36098;48.390;10.856;2022-10-28T00:16:13;96950.56;;;24.60
50206;BMP280;36098;48.390;10.856;2022-10-28T00:18:39;96949.22;;;24.58
50206;BMP280;36098;48.390;10.856;2022-10-28T00:21:08;96949.22;;;24.58
50206;BMP280;36098;48.390;10.856;2022-10-28T00:23:33;96947.13;;;24.60
50206;BMP280;36098;48.390;10.856;2022-10-28T00:28:39;96942.66;;;24.60
50206;BMP280;36098;48.390;10.856;2022-10-28T00:31:05;96949.25;;;24.63
50206;BMP280;36098;48.390;10.856;2022-10-28T00:33:31;96946.06;;;24.61
50206;BMP280;36098;48.390;10.856;2022-10-28T00:36:27;96943.94;;;24.58
50206;BMP280;36098;48.390;10.856;2022-10-28T00:38:51;96942.06;;;24.53
50206;BMP280;36098;48.390;10.856;2022-10-28T00:41:22;96937.84;;;24.52
50206;BMP280;36098;48.390;10.856;2022-10-28T00:43:53;96940.47;;;24.52
50206;BMP280;36098;48.390;10.856;2022-10-28T00:46:37;96938.38;;;24.54
50206;BMP280;36098;48.390;10.856;2022-10-28T00:49:12;96942.66;;;24.60
50206;BMP280;36098;48.390;10.856;2022-10-28T00:51:38;96942.63;;;24.55
50206;BMP280;36098;48.390;10.856;2022-10-28T00:54:04;96942.34;;;24.52
50206;BMP280;36098;48.390;10.856;2022-10-28T00:56:33;96937.56;;;24.49
50206;BMP280;36098;48.390;10.856;2022-10-28T00:59:03;96928.59;;;24.50
50206;BMP280;36098;48.390;10.856;2022-10-28T01:01:31;96933.31;;;24.48
50206;BMP280;36098;48.390;10.856;2022-10-28T01:03:58;96942.00;;;24.43
50206;BMP280;36098;48.390;10.856;2022-10-28T01:06:25;96930.94;;;24.46
50206;BMP280;36098;48.390;10.856;2022-10-28T01:08:51;96931.44;;;24.43
50206;BMP280;36098;48.390;10.856;2022-10-28T01:11:30;96933.03;;;24.44
50206;BMP280;36098;48.390;10.856;2022-10-28T01:14:20;96934.63;;;24.45
50206;BMP280;36098;48.390;10.856;2022-10-28T01:17:23;96938.31;;;24.44
50206;BMP280;36098;48.390;10.856;2022-10-28T01:25:39;96924.84;;;24.41
50206;BMP280;36098;48.390;10.856;2022-10-28T01:31:03;96924.28;;;24.39
50206;BMP280;36098;48.390;10.856;2022-10-28T01:33:39;96934.06;;;24.38
50206;BMP280;36098;48.390;10.856;2022-10-28T01:38:49;96926.69;;;24.40
50206;BMP280;36098;48.390;10.856;2022-10-28T01:44:08;96927.22;;;24.37
50206;BMP280;36098;48.390;10.856;2022-10-28T01:46:55;96929.31;;;24.35
50206;BMP280;36098;48.390;10.856;2022-10-28T01:49:22;96918.78;;;24.40
50206;BMP280;36098;48.390;10.856;2022-10-28T01:52:02;96911.88;;;24.34
50206;BMP280;36098;48.390;10.856;2022-10-28T01:54:31;96922.41;;;24.34
50206;BMP280;36098;48.390;10.856;2022-10-28T01:56:57;96919.78;;;24.34
50206;BMP280;36098;48.390;10.856;2022-10-28T01:59:25;96920.84;;;24.33
50206;BMP280;36098;48.390;10.856;2022-10-28T02:01:53;96917.13;;;24.29
50206;BMP280;36098;48.390;10.856;2022-10-28T02:04:18;96913.97;;;24.32
50206;BMP280;36098;48.390;10.856;2022-10-28T02:06:47;96912.91;;;24.33
50206;BMP280;36098;48.390;10.856;2022-10-28T02:14:51;96920.59;;;24.35
50206;BMP280;36098;48.390;10.856;2022-10-28T02:17:41;96927.16;;;24.32
50206;BMP280;36098;48.390;10.856;2022-10-28T02:20:49;96926.13;;;24.33
50206;BMP280;36098;48.390;10.856;2022-10-28T02:23:48;96923.75;;;24.32
50206;BMP280;36098;48.390;10.856;2022-10-28T02:26:32;96915.81;;;24.27
50206;BMP280;36098;48.390;10.856;2022-10-28T02:29:10;96905.25;;;24.27
50206;BMP280;36098;48.390;10.856;2022-10-28T02:31:46;96913.19;;;24.32
50206;BMP280;36098;48.390;10.856;2022-10-28T02:34:20;96899.97;;;24.27
50206;BMP280;36098;48.390;10.856;2022-10-28T02:36:50;96915.00;;;24.26
50206;BMP280;36098;48.390;10.856;2022-10-28T02:39:20;96911.81;;;24.24
50206;BMP280;36098;48.390;10.856;2022-10-28T02:41:57;96911.03;;;24.24
50206;BMP280;36098;48.390;10.856;2022-10-28T02:44:28;96911.81;;;24.24
50206;BMP280;36098;48.390;10.856;2022-10-28T02:46:58;96902.06;;;24.25
50206;BMP280;36098;48.390;10.856;2022-10-28T02:49:26;96905.00;;;24.33
50206;BMP280;36098;48.390;10.856;2022-10-28T02:52:01;96901.28;;;24.29
50206;BMP280;36098;48.390;10.856;2022-10-28T02:54:54;96902.63;;;24.27
50206;BMP280;36098;48.390;10.856;2022-10-28T02:57:30;96904.44;;;24.26
50206;BMP280;36098;48.390;10.856;2022-10-28T03:00:00;96896.53;;;24.31
50206;BMP280;36098;48.390;10.856;2022-10-28T03:02:26;96898.66;;;24.29
50206;BMP280;36098;48.390;10.856;2022-10-28T03:04:52;96911.28;;;24.22
50206;BMP280;36098;48.390;10.856;2022-10-28T03:07:17;96899.69;;;24.23
50206;BMP280;36098;48.390;10.856;2022-10-28T03:09:42;96906.56;;;24.24
50206;BMP280;36098;48.390;10.856;2022-10-28T03:12:08;96902.31;;;24.18
50206;BMP280;36098;48.390;10.856;2022-10-28T03:14:33;96891.50;;;24.25
50206;BMP280;36098;48.390;10.856;2022-10-28T03:16:58;96892.06;;;24.27
50206;BMP280;36098;48.390;10.856;2022-10-28T03:19:24;96894.41;;;24.23
50206;BMP280;36098;48.390;10.856;2022-10-28T03:21:49;96887.53;;;24.22
50206;BMP280;36098;48.390;10.856;2022-10-28T03:24:14;96892.31;;;24.25
50206;BMP280;36098;48.390;10.856;2022-10-28T03:26:39;96894.94;;;24.20
50206;BMP280;36098;48.390;10.856;2022-10-28T03:29:05;96891.75;;;24.18
50206;BMP280;36098;48.390;10.856;2022-10-28T03:31:30;96890.94;;;24.18
50206;BMP280;36098;48.390;10.856;2022-10-28T03:33:55;96888.84;;;24.20
50206;BMP280;36098;48.390;10.856;2022-10-28T03:36:21;96892.53;;;24.19
50206;BMP280;36098;48.390;10.856;2022-10-28T03:38:46;96885.94;;;24.16
50206;BMP280;36098;48.390;10.856;2022-10-28T03:41:11;96884.31;;;24.15
50206;BMP280;36098;48.390;10.856;2022-10-28T03:43:36;96894.88;;;24.10
50206;BMP280;36098;48.390;10.856;2022-10-28T03:46:02;96892.75;;;24.07
50206;BMP280;36098;48.390;10.856;2022-10-28T03:48:27;96895.91;;;24.09
50206;BMP280;36098;48.390;10.856;2022-10-28T03:50:53;96903.31;;;24.12
50206;BMP280;36098;48.390;10.856;2022-10-28T03:53:19;96901.47;;;24.13
50206;BMP280;36098;48.390;10.856;2022-10-28T03:55:55;96899.34;;;24.10
50206;BMP280;36098;48.390;10.856;2022-10-28T03:58:21;96905.41;;;24.10
50206;BMP280;36098;48.390;10.856;2022-10-28T04:00:47;96900.13;;;24.10
50206;BMP280;36098;48.390;10.856;2022-10-28T04:03:14;96910.19;;;24.13
50206;BMP280;36098;48.390;10.856;2022-10-28T04:05:39;96901.72;;;24.11
50206;BMP280;36098;48.390;10.856;2022-10-28T04:08:04;96902.78;;;24.10
50206;BMP280;36098;48.390;10.856;2022-10-28T04:10:30;96909.63;;;24.06
50206;BMP280;36098;48.390;10.856;2022-10-28T04:12:59;96903.28;;;24.07
50206;BMP280;36098;48.390;10.856;2022-10-28T04:15:25;96904.09;;;24.08
50206;BMP280;36098;48.390;10.856;2022-10-28T04:17:50;96902.50;;;24.07
50206;BMP280;36098;48.390;10.856;2022-10-28T04:20:15;96902.50;;;24.07
50206;BMP280;36098;48.390;10.856;2022-10-28T04:22:41;96910.69;;;24.10
50206;BMP280;36098;48.390;10.856;2022-10-28T04:25:06;96908.06;;;24.10
50206;BMP280;36098;48.390;10.856;2022-10-28T04:27:31;96910.44;;;24.07
50206;BMP280;36098;48.390;10.856;2022-10-28T04:29:57;96907.22;;;24.05
50206;BMP280;36098;48.390;10.856;2022-10-28T04:32:22;96904.34;;;24.06
50206;BMP280;36098;48.390;10.856;2022-10-28T04:34:47;96898.53;;;24.04
50206;BMP280;36098;48.390;10.856;2022-10-28T04:37:12;96900.13;;;24.05
50206;BMP280;36098;48.390;10.856;2022-10-28T04:39:38;96899.59;;;24.03
50206;BMP280;36098;48.390;10.856;2022-10-28T04:42:03;96894.59;;;24.07
50206;BMP280;36098;48.390;10.856;2022-10-28T04:44:28;96891.97;;;24.07
50206;BMP280;36098;48.390;10.856;2022-10-28T04:46:56;96897.78;;;24.09
50206;BMP280;36098;48.390;10.856;2022-10-28T04:49:22;96892.75;;;24.07
50206;BMP280;36098;48.390;10.856;2022-10-28T04:51:47;96894.31;;;24.03
50206;BMP280;36098;48.390;10.856;2022-10-28T04:54:12;96891.91;;;24.02
50206;BMP280;36098;48.390;10.856;2022-10-28T04:56:37;96886.31;;;23.88
50206;BMP280;36098;48.390;10.856;2022-10-28T04:59:03;96885.53;;;23.88
50206;BMP280;36098;48.390;10.856;2022-10-28T05:01:28;96876.16;;;23.75
50206;BMP280;36098;48.390;10.856;2022-10-28T05:03:53;96884.50;;;23.99
50206;BMP280;36098;48.390;10.856;2022-10-28T05:06:18;96885.09;;;24.06
50206;BMP280;36098;48.390;10.856;2022-10-28T05:08:44;96877.41;;;23.99
50206;BMP280;36098;48.390;10.856;2022-10-28T05:11:09;96885.09;;;24.06
50206;BMP280;36098;48.390;10.856;2022-10-28T05:13:34;96883.25;;;24.06
50206;BMP280;36098;48.390;10.856;2022-10-28T05:16:00;96878.06;;;24.26
50206;BMP280;36098;48.390;10.856;2022-10-28T05:18:25;96881.66;;;24.10
50206;BMP280;36098;48.390;10.856;2022-10-28T05:20:50;96878.47;;;24.03
50206;BMP280;36098;48.390;10.856;2022-10-28T05:23:21;96891.16;;;24.11
50206;BMP280;36098;48.390;10.856;2022-10-28T05:25:48;96894.59;;;24.07
50206;BMP280;36098;48.390;10.856;2022-10-28T05:28:13;96889.66;;;24.20
50206;BMP280;36098;48.390;10.856;2022-10-28T05:30:38;96887.03;;;24.25
50206;BMP280;36098;48.390;10.856;2022-10-28T05:33:04;96886.47;;;24.18
50206;BMP280;36098;48.390;10.856;2022-10-28T05:35:29;96878.56;;;24.23
50206;BMP280;36098;48.390;10.856;2022-10-28T05:37:55;96882.81;;;24.24
50206;BMP280;36098;48.390;10.856;2022-10-28T05:40:21;96894.94;;;24.30
50206;BMP280;36098;48.390;10.856;2022-10-28T05:42:46;96881.75;;;24.25
50206;BMP280;36098;48.390;10.856;2022-10-28T05:45:12;96892.25;;;24.15
50206;BMP280;36098;48.390;10.856;2022-10-28T05:47:44;96879.56;;;24.12
50206;BMP280;36098;48.390;10.856;2022-10-28T05:50:12;96889.81;;;24.04
50206;BMP280;36098;48.390;10.856;2022-10-28T05:52:38;96889.84;;;24.09
50206;BMP280;36098;48.390;10.856;2022-10-28T05:55:03;96895.41;;;24.12
50206;BMP280;36098;48.390;10.856;2022-10-28T05:57:32;96892.00;;;24.17
50206;BMP280;36098;48.390;10.856;2022-10-28T05:59:57;96899.41;;;24.20
50206;BMP280;36098;48.390;10.856;2022-10-28T06:02:23;96906.25;;;24.21
50206;BMP280;36098;48.390;10.856;2022-10-28T06:04:48;96909.94;;;24.20
50206;BMP280;36098;48.390;10.856;2022-10-28T06:07:13;96916.56;;;24.17
50206;BMP280;36098;48.390;10.856;2022-10-28T06:09:38;96925.00;;;24.19
50206;BMP280;36098;48.390;10.856;2022-10-28T06:12:05;96928.16;;;24.16
50206;BMP280;36098;48.390;10.856;2022-10-28T06:14:30;96933.69;;;24.15
50206;BMP280;36098;48.390;10.856;2022-10-28T06:16:56;96927.34;;;24.16
50206;BMP280;36098;48.390;10.856;2022-10-28T06:19:21;96932.59;;;24.06
50206;BMP280;36098;48.390;10.856;2022-10-28T06:21:46;96936.00;;;24.06
50206;BMP280;36098;48.390;10.856;2022-10-28T06:24:12;96936.03;;;24.11
50206;BMP280;36098;48.390;10.856;2022-10-28T06:26:37;96936.84;;;24.12
50206;BMP280;36098;48.390;10.856;2022-10-28T06:29:02;96931.75;;;24.00
50206;BMP280;36098;48.390;10.856;2022-10-28T06:31:27;96943.25;;;23.84
50206;BMP280;36098;48.390;10.856;2022-10-28T06:33:53;96945.09;;;23.84
50206;BMP280;36098;48.390;10.856;2022-10-28T06:36:18;96939.75;;;24.15
50206;BMP280;36098;48.390;10.856;2022-10-28T06:38:43;96939.25;;;24.18
50206;BMP280;36098;48.390;10.856;2022-10-28T06:41:08;96940.34;;;24.27
50206;BMP280;36098;48.390;10.856;2022-10-28T06:43:34;96944.56;;;24.28
50206;BMP280;36098;48.390;10.856;2022-10-28T06:46:00;96944.22;;;24.10
50206;BMP280;36098;48.390;10.856;2022-10-28T06:48:25;96940.03;;;24.19
50206;BMP280;36098;48.390;10.856;2022-10-28T06:50:53;96933.47;;;24.26
50206;BMP280;36098;48.390;10.856;2022-10-28T06:53:19;96936.56;;;24.13
50206;BMP280;36098;48.390;10.856;2022-10-28T06:55:53;96939.75;;;24.15
50206;BMP280;36098;48.390;10.856;2022-10-28T06:58:19;96942.94;;;24.17
50206;BMP280;36098;48.390;10.856;2022-10-28T07:00:45;96942.97;;;24.22
50206;BMP280;36098;48.390;10.856;2022-10-28T07:03:10;96945.03;;;24.15
50206;BMP280;36098;48.390;10.856;2022-10-28T07:05:35;96953.91;;;23.99
50206;BMP280;36098;48.390;10.856;2022-10-28T07:08:01;96959.41;;;23.93
50206;BMP280;36098;48.390;10.856;2022-10-28T07:10:26;96959.78;;;24.11
50206;BMP280;36098;48.390;10.856;2022-10-28T07:12:52;96965.06;;;24.11
50206;BMP280;36098;48.390;10.856;2022-10-28T07:15:17;96964.31;;;24.16
50206;BMP280;36098;48.390;10.856;2022-10-28T07:17:42;96960.84;;;24.15
50206;BMP280;36098;48.390;10.856;2022-10-28T07:20:08;96958.28;;;24.20
50206;BMP280;36098;48.390;10.856;2022-10-28T07:22:34;96952.34;;;24.03
50206;BMP280;36098;48.390;10.856;2022-10-28T07:24:59;96960.28;;;24.03
50206;BMP280;36098;48.390;10.856;2022-10-28T07:27:24;96951.75;;;23.91
50206;BMP280;36098;48.390;10.856;2022-10-28T07:29:50;96949.16;;;23.96
50206;BMP280;36098;48.390;10.856;2022-10-28T07:32:15;96948.38;;;24.01
50206;BMP280;36098;48.390;10.856;2022-10-28T07:34:40;96949.69;;;23.98
50206;BMP280;36098;48.390;10.856;2022-10-28T07:37:05;96936.53;;;24.03
50206;BMP280;36098;48.390;10.856;2022-10-28T07:39:31;96949.28;;;24.16
50206;BMP280;36098;48.390;10.856;2022-10-28T07:41:56;96948.44;;;24.11
50206;BMP280;36098;48.390;10.856;2022-10-28T07:44:21;96953.25;;;24.24
50206;BMP280;36098;48.390;10.856;2022-10-28T07:46:47;96958.72;;;24.07
50206;BMP280;36098;48.390;10.856;2022-10-28T07:49:12;96961.28;;;23.97
50206;BMP280;36098;48.390;10.856;2022-10-28T07:51:37;96968.69;;;24.00
50206;BMP280;36098;48.390;10.856;2022-10-28T07:54:03;96962.38;;;24.01
50206;BMP280;36098;48.390;10.856;2022-10-28T07:56:28;96977.06;;;23.92
50206;BMP280;36098;48.390;10.856;2022-10-28T07:58:53;96956.56;;;23.99
50206;BMP280;36098;48.390;10.856;2022-10-28T08:01:19;96964.47;;;23.99
50206;BMP280;36098;48.390;10.856;2022-10-28T08:03:45;96974.09;;;23.84
50206;BMP280;36098;48.390;10.856;2022-10-28T08:06:19;96973.34;;;23.88
50206;BMP280;36098;48.390;10.856;2022-10-28T08:08:46;96972.91;;;23.96
50206;BMP280;36098;48.390;10.856;2022-10-28T08:11:15;96963.44;;;24.05
50206;BMP280;36098;48.390;10.856;2022-10-28T08:13:41;96962.38;;;24.01
50206;BMP280;36098;48.390;10.856;2022-10-28T08:16:07;96965.78;;;24.02
50206;BMP280;36098;48.390;10.856;2022-10-28T08:18:33;96963.44;;;24.05
50206;BMP280;36098;48.390;10.856;2022-10-28T08:21:00;96961.84;;;23.99
50206;BMP280;36098;48.390;10.856;2022-10-28T08:23:26;96963.94;;;23.97
50206;BMP280;36098;48.390;10.856;2022-10-28T08:25:52;96960.47;;;23.92
50206;BMP280;36098;48.390;10.856;2022-10-28T08:28:17;96953.88;;;23.94
50206;BMP280;36098;48.390;10.856;2022-10-28T08:30:43;96948.03;;;23.87
50206;BMP280;36098;48.390;10.856;2022-10-28T08:33:09;96955.75;;;23.99
50206;BMP280;36098;48.390;10.856;2022-10-28T08:35:34;96949.44;;;24.05
50206;BMP280;36098;48.390;10.856;2022-10-28T08:38:00;96955.75;;;23.99
50206;BMP280;36098;48.390;10.856;2022-10-28T08:43:07;96950.97;;;23.96
50206;BMP280;36098;48.390;10.856;2022-10-28T08:48:29;96955.97;;;23.92
50206;BMP280;36098;48.390;10.856;2022-10-28T08:51:16;96965.13;;;23.85
50206;BMP280;36098;48.390;10.856;2022-10-28T08:53:51;96957.63;;;24.03
50206;BMP280;36098;48.390;10.856;2022-10-28T08:56:28;96944.94;;;24.00
50206;BMP280;36098;48.390;10.856;2022-10-28T08:58:55;96948.91;;;24.03
50206;BMP280;36098;48.390;10.856;2022-10-28T09:01:42;96943.91;;;24.01
50206;BMP280;36098;48.390;10.856;2022-10-28T09:04:18;96943.38;;;23.99
50206;BMP280;36098;48.390;10.856;2022-10-28T09:06:45;96949.16;;;23.96
50206;BMP280;36098;48.390;10.856;2022-10-28T09:09:17;96949.16;;;23.96
50206;BMP280;36098;48.390;10.856;2022-10-28T09:12:15;96946.00;;;23.99
50206;BMP280;36098;48.390;10.856;2022-10-28T09:14:59;96938.84;;;23.95
50206;BMP280;36098;48.390;10.856;2022-10-28T09:20:23;96939.19;;;24.08
50206;BMP280;36098;48.390;10.856;2022-10-28T09:22:57;96938.34;;;24.03
50206;BMP280;36098;48.390;10.856;2022-10-28T09:28:05;96953.69;;;24.06
50206;BMP280;36098;48.390;10.856;2022-10-28T09:35:53;96961.84;;;24.04
50206;BMP280;36098;48.390;10.856;2022-10-28T09:40:50;96952.34;;;24.03
50206;BMP280;36098;48.390;10.856;2022-10-28T09:43:29;96939.69;;;24.05
50206;BMP280;36098;48.390;10.856;2022-10-28T09:46:04;96945.78;;;24.06
50206;BMP280;36098;48.390;10.856;2022-10-28T09:48:35;96961.91;;;24.14
50206;BMP280;36098;48.390;10.856;2022-10-28T09:51:02;96971.41;;;24.15
50206;BMP280;36098;48.390;10.856;2022-10-28T09:53:34;96951.41;;;24.19
50206;BMP280;36098;48.390;10.856;2022-10-28T09:56:03;96947.72;;;24.25
50206;BMP280;36098;48.390;10.856;2022-10-28T09:58:33;96940.31;;;24.22
50206;BMP280;36098;48.390;10.856;2022-10-28T10:01:01;96939.75;;;24.15
50206;BMP280;36098;48.390;10.856;2022-10-28T10:03:26;96943.16;;;24.11
50206;BMP280;36098;48.390;10.856;2022-10-28T10:05:53;96948.72;;;24.14
50206;BMP280;36098;48.390;10.856;2022-10-28T10:08:20;96947.66;;;24.15
50206;BMP280;36098;48.390;10.856;2022-10-28T10:13:12;96954.69;;;24.00
50206;BMP280;36098;48.390;10.856;2022-10-28T10:15:51;96965.56;;;24.03
50206;BMP280;36098;48.390;10.856;2022-10-28T10:18:29;96952.66;;;24.12
50206;BMP280;36098;48.390;10.856;2022-10-28T10:20:57;96949.72;;;24.03
50206;BMP280;36098;48.390;10.856;2022-10-28T10:23:31;96945.78;;;24.06
50206;BMP280;36098;48.390;10.856;2022-10-28T10:26:07;96945.53;;;24.12
50206;BMP280;36098;48.390;10.856;2022-10-28T10:28:35;96944.00;;;24.21
50206;BMP280;36098;48.390;10.856;2022-10-28T10:31:04;96937.97;;;24.26
50206;BMP280;36098;48.390;10.856;2022-10-28T10:33:32;96941.94;;;24.28
50206;BMP280;36098;48.390;10.856;2022-10-28T10:36:10;96936.13;;;24.26
50206;BMP280;36098;48.390;10.856;2022-10-28T10:38:38;96942.47;;;24.30
50206;BMP280;36098;48.390;10.856;2022-10-28T10:41:10;96949.28;;;24.21
50206;BMP280;36098;48.390;10.856;2022-10-28T10:43:35;96956.69;;;24.19
50206;BMP280;36098;48.390;10.856;2022-10-28T10:46:15;96948.16;;;24.12
50206;BMP280;36098;48.390;10.856;2022-10-28T10:48:42;96948.44;;;24.11
50206;BMP280;36098;48.390;10.856;2022-10-28T10:51:16;96954.56;;;24.21
50206;BMP280;36098;48.390;10.856;2022-10-28T10:53:44;96947.59;;;24.00
50206;BMP280;36098;48.390;10.856;2022-10-28T10:56:11;96947.66;;;24.15
50206;BMP280;36098;48.390;10.856;2022-10-28T10:58:47;96939.25;;;24.18
50206;BMP280;36098;48.390;10.856;2022-10-28T11:01:16;96935.06;;;24.22
50206;BMP280;36098;48.390;10.856;2022-10-28T11:03:53;96926.09;;;24.23
50206;BMP280;36098;48.390;10.856;2022-10-28T11:06:22;96920.81;;;24.28
50206;BMP280;36098;48.390;10.856;2022-10-28T11:08:53;96916.88;;;24.31
50206;BMP280;36098;48.390;10.856;2022-10-28T11:11:21;96926.59;;;24.20
50206;BMP280;36098;48.390;10.856;2022-10-28T11:13:48;96912.34;;;24.21
50206;BMP280;36098;48.390;10.856;2022-10-28T11:16:25;96917.00;;;24.04
50206;BMP280;36098;48.390;10.856;2022-10-28T11:18:52;96923.13;;;24.15
50206;BMP280;36098;48.390;10.856;2022-10-28T11:26:15;96915.19;;;24.10
50206;BMP280;36098;48.390;10.856;2022-10-28T11:29:08;96927.13;;;24.22
50206;BMP280;36098;48.390;10.856;2022-10-28T11:34:44;96916.38;;;24.34
50206;BMP280;36098;48.390;10.856;2022-10-28T11:40:29;96921.13;;;24.42
50206;BMP280;36098;48.390;10.856;2022-10-28T11:51:54;96914.63;;;24.54
50206;BMP280;36098;48.390;10.856;2022-10-28T11:57:06;96914.56;;;24.49
50206;BMP280;36098;48.390;10.856;2022-10-28T12:05:17;96904.50;;;24.41
50206;BMP280;36098;48.390;10.856;2022-10-28T12:07:50;96898.16;;;24.37
50206;BMP280;36098;48.390;10.856;2022-10-28T12:10:29;96891.03;;;24.38
50206;BMP280;36098;48.390;10.856;2022-10-28T12:18:57;96903.03;;;24.65
50206;BMP280;36098;48.390;10.856;2022-10-28T12:21:36;96891.97;;;24.73
50206;BMP280;36098;48.390;10.856;2022-10-28T12:24:05;96890.66;;;24.76
50206;BMP280;36098;48.390;10.856;2022-10-28T12:26:42;96884.88;;;24.89
50206;BMP280;36098;48.390;10.856;2022-10-28T12:29:19;96869.59;;;25.40
50206;BMP280;36098;48.390;10.856;2022-10-28T12:32:07;96869.88;;;25.44
50206;BMP280;36098;48.390;10.856;2022-10-28T12:34:39;96865.34;;;25.74
50206;BMP280;36098;48.390;10.856;2022-10-28T12:37:12;96863.69;;;26.13
50206;BMP280;36098;48.390;10.856;2022-10-28T12:39:46;96858.59;;;26.32
50206;BMP280;36098;48.390;10.856;2022-10-28T12:42:22;96863.84;;;26.37
50206;BMP280;36098;48.390;10.856;2022-10-28T12:44:53;96859.34;;;26.42
50206;BMP280;36098;48.390;10.856;2022-10-28T12:47:26;96852.66;;;26.60
50206;BMP280;36098;48.390;10.856;2022-10-28T12:50:14;96853.41;;;26.60
50206;BMP280;36098;48.390;10.856;2022-10-28T12:55:41;96854.81;;;26.53
50206;BMP280;36098;48.390;10.856;2022-10-28T12:58:14;96853.41;;;26.60
50206;BMP280;36098;48.390;10.856;2022-10-28T13:00:44;96844.09;;;26.68
50206;BMP280;36098;48.390;10.856;2022-10-28T13:03:12;96836.94;;;26.73
50206;BMP280;36098;48.390;10.856;2022-10-28T13:14:21;96838.88;;;27.01
50206;BMP280;36098;48.390;10.856;2022-10-28T13:17:07;96835.97;;;26.98
50206;BMP280;36098;48.390;10.856;2022-10-28T13:22:25;96837.16;;;27.20
50206;BMP280;36098;48.390;10.856;2022-10-28T13:27:41;96835.44;;;27.34
50206;BMP280;36098;48.390;10.856;2022-10-28T13:30:15;96839.59;;;27.45
50206;BMP280;36098;48.390;10.856;2022-10-28T13:32:41;96830.81;;;27.49
50206;BMP280;36098;48.390;10.856;2022-10-28T13:35:20;96854.13;;;27.47
50206;BMP280;36098;48.390;10.856;2022-10-28T13:37:47;96841.81;;;27.61
50206;BMP280;36098;48.390;10.856;2022-10-28T13:40:23;96844.78;;;27.55
50206;BMP280;36098;48.390;10.856;2022-10-28T13:43:17;96853.63;;;27.45
50206;BMP280;36098;48.390;10.856;2022-10-28T13:45:49;96850.25;;;27.40
50206;BMP280;36098;48.390;10.856;2022-10-28T13:59:00;96844.66;;;26.65
50206;BMP280;36098;48.390;10.856;2022-10-28T14:01:38;96836.50;;;26.61
50206;BMP280;36098;48.390;10.856;2022-10-28T14:04:37;96850.00;;;26.60
50206;BMP280;36098;48.390;10.856;2022-10-28T14:09:35;96854.78;;;26.58
50206;BMP280;36098;48.390;10.856;2022-10-28T14:12:31;96848.41;;;26.59
50206;BMP280;36098;48.390;10.856;2022-10-28T14:17:38;96853.38;;;26.70
50206;BMP280;36098;48.390;10.856;2022-10-28T14:22:44;96846.91;;;26.86
50206;BMP280;36098;48.390;10.856;2022-10-28T14:25:55;96848.00;;;26.85
50206;BMP280;36098;48.390;10.856;2022-10-28T14:44:42;96840.16;;;26.65
50206;BMP280;36098;48.390;10.856;2022-10-28T14:47:41;96833.84;;;26.56
50206;BMP280;36098;48.390;10.856;2022-10-28T14:50:22;96829.09;;;26.53
50206;BMP280;36098;48.390;10.856;2022-10-28T14:52:49;96834.06;;;26.65
50206;BMP280;36098;48.390;10.856;2022-10-28T14:55:27;96826.72;;;26.57
50206;BMP280;36098;48.390;10.856;2022-10-28T14:58:10;96820.19;;;26.29
50206;BMP280;36098;48.390;10.856;2022-10-28T15:00:42;96823.94;;;26.18
50206;BMP280;36098;48.390;10.856;2022-10-28T15:03:10;96815.00;;;26.09
50206;BMP280;36098;48.390;10.856;2022-10-28T15:05:36;96810.00;;;26.03
50206;BMP280;36098;48.390;10.856;2022-10-28T15:08:02;96813.72;;;25.97
50206;BMP280;36098;48.390;10.856;2022-10-28T15:10:30;96813.72;;;25.92
50206;BMP280;36098;48.390;10.856;2022-10-28T15:12:58;96808.97;;;25.89
50206;BMP280;36098;48.390;10.856;2022-10-28T15:15:29;96812.69;;;25.88
50206;BMP280;36098;48.390;10.856;2022-10-28T15:17:55;96808.44;;;25.82
50206;BMP280;36098;48.390;10.856;2022-10-28T15:20:34;96805.28;;;25.80
50206;BMP280;36098;48.390;10.856;2022-10-28T15:23:17;96809.53;;;25.76
50206;BMP280;36098;48.390;10.856;2022-10-28T15:25:43;96800.00;;;25.70
50206;BMP280;36098;48.390;10.856;2022-10-28T15:28:12;96808.47;;;25.67
50206;BMP280;36098;48.390;10.856;2022-10-28T15:30:42;96805.84;;;25.62
50206;BMP280;36098;48.390;10.856;2022-10-28T15:33:29;96806.38;;;25.59
50206;BMP280;36098;48.390;10.856;2022-10-28T15:36:07;96797.41;;;25.55
50206;BMP280;36098;48.390;10.856;2022-10-28T15:38:39;96803.75;;;25.54
50206;BMP280;36098;48.390;10.856;2022-10-28T15:43:55;96805.09;;;25.46
50206;BMP280;36098;48.390;10.856;2022-10-28T15:46:22;96800.84;;;25.40
50206;BMP280;36098;48.390;10.856;2022-10-28T15:48:59;96803.78;;;25.39
50206;BMP280;36098;48.390;10.856;2022-10-28T15:51:24;96805.91;;;25.37
50206;BMP280;36098;48.390;10.856;2022-10-28T15:53:51;96803.78;;;25.34
50206;BMP280;36098;48.390;10.856;2022-10-28T15:56:22;96807.22;;;25.34
50206;BMP280;36098;48.390;10.856;2022-10-28T15:59:19;96803.78;;;25.39
50206;BMP280;36098;48.390;10.856;2022-10-28T16:01:45;96805.59;;;25.63
50206;BMP280;36098;48.390;10.856;2022-10-28T16:04:39;96813.78;;;25.52
50206;BMP280;36098;48.390;10.856;2022-10-28T16:07:07;96816.44;;;25.57
50206;BMP280;36098;48.390;10.856;2022-10-28T16:09:41;96817.00;;;25.44
50206;BMP280;36098;48.390;10.856;2022-10-28T16:12:15;96822.28;;;25.44
50206;BMP280;36098;48.390;10.856;2022-10-28T16:14:47;96822.81;;;25.41
50206;BMP280;36098;48.390;10.856;2022-10-28T16:17:19;96819.66;;;25.34
50206;BMP280;36098;48.390;10.856;2022-10-28T16:19:53;96830.22;;;25.29
50206;BMP280;36098;48.390;10.856;2022-10-28T16:22:22;96836.03;;;25.26
50206;BMP280;36098;48.390;10.856;2022-10-28T16:24:49;96826.25;;;25.21
50206;BMP280;36098;48.390;10.856;2022-10-28T16:27:30;96823.09;;;25.34